Time;durP1;ratioP1;P1;durP2;ratioP2;P2;SDS_P1;SDS_P2;PMS_P1;PMS_P2;Temp;Humidity;BMP_temperature;BMP_pressure;BME280_temperature;BME280_humidity;BME280_pressure;Samples;Min_cycle;Max_cycle;Signal;HPM_P1;HPM_P2
2023/05/28 00:02:15;;;;;;;11.65;10.43;;;19.20;34.50;;;;;;4988863;28;20275;-56
2023/05/28 00:04:42;;;;;;;10.57;9.40;;;19.20;34.40;;;;;;4993197;28;20187;-54
2023/05/28 00:07:10;;;;;;;11.88;9.55;;;19.20;34.20;;;;;;5003274;28;20206;-56
2023/05/28 00:09:36;;;;;;;10.02;8.65;;;19.20;34.10;;;;;;4995394;28;20826;-54
2023/05/28 00:12:02;;;;;;;12.65;7.90;;;19.20;34.20;;;;;;4995794;28;20201;-55
2023/05/28 00:14:29;;;;;;;12.15;8.00;;;19.10;34.20;;;;;;4995312;28;20190;-57
2023/05/28 00:16:55;;;;;;;12.07;8.35;;;19.00;34.00;;;;;;4995398;28;20210;-54
2023/05/28 00:19:22;;;;;;;13.32;7.78;;;19.00;34.10;;;;;;4995248;28;20669;-54
2023/05/28 00:21:48;;;;;;;11.70;9.30;;;18.90;34.30;;;;;;4978006;28;20167;-54
2023/05/28 00:24:13;;;;;;;14.97;9.13;;;18.90;34.10;;;;;;4995689;28;20816;-58
2023/05/28 00:26:40;;;;;;;16.53;9.63;;;18.80;34.50;;;;;;4989749;28;20434;-57
2023/05/28 00:29:05;;;;;;;13.85;10.07;;;18.80;34.60;;;;;;4995379;28;20445;-54
2023/05/28 00:31:31;;;;;;;17.63;9.53;;;18.80;34.60;;;;;;4995144;28;20183;-55
2023/05/28 00:33:57;;;;;;;15.40;8.80;;;18.70;34.90;;;;;;4995419;28;20183;-57
2023/05/28 00:36:22;;;;;;;13.33;9.10;;;18.70;34.80;;;;;;4994385;28;20911;-57
2023/05/28 00:38:48;;;;;;;10.63;9.00;;;18.70;35.00;;;;;;4994598;28;20182;-54
2023/05/28 00:41:22;;;;;;;12.73;9.23;;;17.70;34.30;;;;;;4976634;28;20175;-54
2023/05/28 00:43:48;;;;;;;13.43;7.88;;;18.70;35.00;;;;;;4992625;28;20415;-58
2023/05/28 00:46:18;;;;;;;11.65;7.80;;;18.70;35.10;;;;;;4993190;28;20211;-54
2023/05/28 00:48:44;;;;;;;13.18;8.98;;;18.60;35.10;;;;;;4993360;28;20175;-55
2023/05/28 00:51:11;;;;;;;11.35;7.78;;;18.60;35.20;;;;;;4992839;28;20256;-54
2023/05/28 00:53:38;;;;;;;13.30;8.75;;;18.50;35.00;;;;;;4993012;28;20223;-56
2023/05/28 00:56:04;;;;;;;24.80;8.95;;;18.50;35.30;;;;;;4975491;28;20221;-57
2023/05/28 00:58:31;;;;;;;12.18;7.90;;;18.40;35.00;;;;;;4995247;28;20175;-55
2023/05/28 01:00:56;;;;;;;11.48;8.05;;;18.30;35.10;;;;;;4994604;28;20646;-57
2023/05/28 01:03:23;;;;;;;11.07;7.97;;;18.30;35.40;;;;;;4994657;28;20206;-57
2023/05/28 01:05:49;;;;;;;12.45;9.10;;;18.20;35.70;;;;;;4994600;28;20468;-54
2023/05/28 01:08:15;;;;;;;11.30;7.10;;;18.20;35.90;;;;;;4994936;28;20190;-56
2023/05/28 01:10:41;;;;;;;23.33;8.57;;;18.20;35.80;;;;;;4994456;28;20179;-56
2023/05/28 01:13:08;;;;;;;17.93;10.63;;;18.10;35.90;;;;;;4994614;28;20421;-55
2023/05/28 01:15:35;;;;;;;11.02;7.82;;;18.10;35.90;;;;;;4994452;28;20569;-54
2023/05/28 01:18:01;;;;;;;12.75;8.18;;;18.00;35.80;;;;;;4994673;28;20175;-57
2023/05/28 01:20:28;;;;;;;10.95;9.10;;;17.90;36.00;;;;;;4976693;28;20177;-57
2023/05/28 01:23:05;;;;;;;13.65;9.90;;;17.80;36.00;;;;;;4994336;28;20174;-54
2023/05/28 01:25:33;;;;;;;12.52;8.63;;;17.80;35.90;;;;;;4994242;28;20283;-56
2023/05/28 01:28:01;;;;;;;13.70;8.18;;;17.70;36.20;;;;;;4994320;28;20172;-57
2023/05/28 01:30:27;;;;;;;8.77;7.00;;;17.60;36.10;;;;;;4993862;28;20172;-55
2023/05/28 01:32:53;;;;;;;12.18;8.15;;;17.50;36.10;;;;;;4994175;28;20179;-54
2023/05/28 01:35:19;;;;;;;9.13;8.17;;;17.40;36.40;;;;;;4993950;28;20192;-57
2023/05/28 01:37:49;;;;;;;12.77;8.33;;;17.40;36.50;;;;;;4994062;28;20187;-57
2023/05/28 01:40:17;;;;;;;10.63;7.32;;;17.30;36.60;;;;;;4993841;28;20418;-54
2023/05/28 01:42:46;;;;;;;10.30;7.93;;;17.20;36.50;;;;;;4994218;28;20179;-55
2023/05/28 01:45:12;;;;;;;8.45;7.53;;;17.20;36.60;;;;;;4993795;28;20266;-56
2023/05/28 01:47:39;;;;;;;10.13;7.75;;;17.10;36.80;;;;;;4994182;28;20183;-56
2023/05/28 01:50:05;;;;;;;9.23;6.80;;;17.10;36.80;;;;;;4976194;28;20179;-54
2023/05/28 01:52:31;;;;;;;11.05;6.85;;;17.00;36.70;;;;;;4993736;28;20180;-54
2023/05/28 01:54:57;;;;;;;11.23;6.93;;;17.00;37.00;;;;;;4992862;28;20176;-57
2023/05/28 01:57:23;;;;;;;8.80;7.47;;;16.90;37.00;;;;;;4993633;28;20207;-55
2023/05/28 01:59:48;;;;;;;11.73;7.93;;;16.80;37.10;;;;;;4993469;28;20230;-56
2023/05/28 02:02:14;;;;;;;11.23;8.23;;;16.70;37.20;;;;;;4993580;28;20179;-57
2023/05/28 02:04:40;;;;;;;12.17;8.77;;;16.70;37.40;;;;;;4993350;28;20187;-54
2023/05/28 02:07:06;;;;;;;11.60;7.90;;;16.60;37.40;;;;;;4993853;28;20200;-54
2023/05/28 02:09:31;;;;;;;11.33;7.07;;;16.50;37.50;;;;;;4993549;28;20187;-55
2023/05/28 02:12:02;;;;;;;11.73;9.33;;;16.50;37.60;;;;;;4997739;28;20425;-55
2023/05/28 02:14:28;;;;;;;126.45;51.67;;;16.40;37.60;;;;;;5012967;28;20825;-56
2023/05/28 02:16:54;;;;;;;31.13;16.98;;;16.30;37.70;;;;;;5012911;28;20711;-55
2023/05/28 02:19:20;;;;;;;17.30;13.27;;;16.30;37.70;;;;;;5012608;28;20182;-55
2023/05/28 02:21:46;;;;;;;12.10;8.10;;;16.20;37.70;;;;;;5012943;28;20177;-57
2023/05/28 02:24:12;;;;;;;11.80;6.80;;;16.10;37.70;;;;;;5012849;28;20409;-56
2023/05/28 02:26:38;;;;;;;11.40;7.60;;;16.10;37.70;;;;;;5012709;28;20430;-55
2023/05/28 02:29:03;;;;;;;9.23;8.13;;;16.00;37.70;;;;;;5012978;28;20421;-55
2023/05/28 02:31:29;;;;;;;9.40;6.60;;;15.90;37.70;;;;;;5012614;28;20552;-57
2023/05/28 02:33:55;;;;;;;9.40;7.30;;;15.90;37.80;;;;;;5012617;28;20182;-55
2023/05/28 02:36:22;;;;;;;10.23;6.40;;;15.80;37.80;;;;;;5012581;28;20202;-54
2023/05/28 02:38:48;;;;;;;9.82;6.85;;;15.80;37.80;;;;;;5012639;28;20591;-56
2023/05/28 02:41:14;;;;;;;9.90;6.45;;;15.70;38.10;;;;;;4995155;28;20209;-55
2023/05/28 02:43:40;;;;;;;12.53;7.17;;;15.70;38.10;;;;;;5012714;28;20198;-57
2023/05/28 02:46:06;;;;;;;14.73;7.83;;;15.60;38.10;;;;;;5012442;28;20277;-58
2023/05/28 02:48:31;;;;;;;8.27;6.67;;;15.60;38.10;;;;;;5012505;28;20257;-54
2023/05/28 02:50:57;;;;;;;10.90;6.93;;;15.50;38.10;;;;;;5012287;28;20253;-55
2023/05/28 02:53:23;;;;;;;10.37;7.03;;;15.40;38.00;;;;;;5012535;28;20664;-55
2023/05/28 02:55:49;;;;;;;8.63;6.30;;;15.30;38.10;;;;;;5012209;28;20206;-54
2023/05/28 02:58:15;;;;;;;9.20;7.45;;;15.30;38.10;;;;;;5012445;28;20215;-60
2023/05/28 03:00:41;;;;;;;9.20;7.20;;;15.30;38.20;;;;;;5012195;28;20853;-55
2023/05/28 03:03:08;;;;;;;10.55;6.70;;;15.20;38.20;;;;;;5012231;28;20194;-57
2023/05/28 03:05:35;;;;;;;9.43;6.50;;;15.20;38.30;;;;;;5011915;28;20297;-56
2023/05/28 03:08:00;;;;;;;14.43;8.20;;;15.10;38.50;;;;;;5012305;28;20232;-57
2023/05/28 03:10:26;;;;;;;14.07;7.50;;;15.10;38.50;;;;;;5011926;28;20182;-57
2023/05/28 03:12:52;;;;;;;9.03;6.20;;;15.10;38.60;;;;;;5012253;28;20201;-55
2023/05/28 03:15:18;;;;;;;8.33;6.13;;;15.00;38.80;;;;;;5012378;28;20433;-56
2023/05/28 03:17:44;;;;;;;8.87;6.37;;;15.00;38.70;;;;;;5012418;28;20576;-55
2023/05/28 03:20:11;;;;;;;18.80;6.30;;;15.00;38.90;;;;;;5011838;28;20409;-55
2023/05/28 03:22:38;;;;;;;10.00;7.75;;;14.90;38.90;;;;;;5012104;28;20305;-60
2023/05/28 03:25:05;;;;;;;9.15;6.30;;;14.90;39.20;;;;;;5012328;28;20185;-56
2023/05/28 03:27:34;;;;;;;10.40;7.00;;;14.90;39.30;;;;;;5012109;28;20182;-56
2023/05/28 03:30:00;;;;;;;8.05;6.03;;;14.90;39.20;;;;;;5012149;28;20189;-58
2023/05/28 03:32:25;;;;;;;11.60;6.40;;;14.80;39.30;;;;;;5012303;28;20660;-56
2023/05/28 03:34:51;;;;;;;8.30;6.60;;;14.80;39.30;;;;;;5012047;28;20634;-56
2023/05/28 03:37:17;;;;;;;9.07;6.10;;;14.80;39.30;;;;;;5011843;28;20198;-59
2023/05/28 03:39:44;;;;;;;7.50;5.93;;;14.80;39.40;;;;;;5011794;28;20171;-57
2023/05/28 03:42:10;;;;;;;9.00;6.22;;;14.80;39.50;;;;;;5011819;28;20174;-55
2023/05/28 03:44:35;;;;;;;8.73;5.70;;;14.70;39.60;;;;;;5012031;28;20183;-58
2023/05/28 03:47:01;;;;;;;10.87;7.60;;;14.80;39.80;;;;;;5012130;28;20198;-56
2023/05/28 03:49:27;;;;;;;7.75;6.35;;;14.70;39.70;;;;;;5011678;28;20584;-55
2023/05/28 03:51:53;;;;;;;8.67;6.07;;;14.70;39.80;;;;;;5011949;28;20236;-58
2023/05/28 03:54:19;;;;;;;10.07;6.30;;;14.80;39.70;;;;;;5011731;28;20421;-55
2023/05/28 03:56:45;;;;;;;8.10;6.17;;;14.80;39.80;;;;;;5011828;28;20225;-59
2023/05/28 03:59:10;;;;;;;10.37;7.10;;;14.80;39.80;;;;;;5011590;28;20429;-60
2023/05/28 04:01:36;;;;;;;12.97;6.47;;;14.80;39.80;;;;;;5011697;28;20182;-56
2023/05/28 04:04:03;;;;;;;11.63;6.55;;;14.80;39.80;;;;;;5011700;28;20571;-55
2023/05/28 04:06:31;;;;;;;15.02;6.30;;;14.80;39.80;;;;;;5011467;28;20364;-57
2023/05/28 04:08:57;;;;;;;8.65;5.72;;;14.90;40.00;;;;;;5011812;28;20816;-55
2023/05/28 04:11:24;;;;;;;7.38;6.50;;;14.90;40.00;;;;;;5011458;28;20179;-55
2023/05/28 04:13:51;;;;;;;7.43;5.10;;;14.90;40.10;;;;;;4994281;28;20266;-59
2023/05/28 04:16:19;;;;;;;21.38;6.38;;;14.90;40.20;;;;;;5011364;28;20305;-53
2023/05/28 04:18:45;;;;;;;11.43;6.88;;;15.00;40.00;;;;;;5013272;28;20183;-56
2023/05/28 04:21:12;;;;;;;7.60;5.97;;;15.00;40.20;;;;;;5015154;28;20182;-58
2023/05/28 04:23:38;;;;;;;7.68;5.60;;;15.10;40.20;;;;;;5014952;28;20401;-54
2023/05/28 04:26:06;;;;;;;9.83;6.70;;;15.10;40.30;;;;;;5015019;28;20203;-54
2023/05/28 04:28:33;;;;;;;9.88;6.78;;;15.20;40.40;;;;;;5015309;28;20543;-59
2023/05/28 04:31:01;;;;;;;9.02;6.25;;;15.30;40.20;;;;;;5014992;28;20193;-56
2023/05/28 04:33:30;;;;;;;10.95;6.50;;;15.40;40.80;;;;;;5015140;28;20182;-55
2023/05/28 04:35:59;;;;;;;10.27;6.70;;;15.40;40.20;;;;;;5014627;28;20237;-55
2023/05/28 04:38:31;;;;;;;7.50;5.45;;;15.50;40.10;;;;;;5014845;28;20217;-56
2023/05/28 04:40:57;;;;;;;8.15;5.70;;;15.60;39.70;;;;;;5014906;28;20225;-55
2023/05/28 04:43:23;;;;;;;6.97;6.03;;;15.60;39.70;;;;;;5015018;28;20198;-57
2023/05/28 04:45:49;;;;;;;6.50;5.45;;;15.60;39.50;;;;;;5014643;28;20421;-56
2023/05/28 04:48:15;;;;;;;9.73;5.97;;;15.70;39.50;;;;;;5014615;28;20205;-60
2023/05/28 04:50:41;;;;;;;15.25;7.22;;;15.80;39.30;;;;;;5014456;28;20528;-58
2023/05/28 04:53:07;;;;;;;12.30;6.40;;;15.80;39.20;;;;;;5014582;28;20175;-54
2023/05/28 04:55:33;;;;;;;9.57;6.10;;;15.90;39.50;;;;;;5014785;28;20775;-60
2023/05/28 04:57:59;;;;;;;6.77;5.97;;;15.90;39.40;;;;;;5014567;28;20745;-57
2023/05/28 05:00:26;;;;;;;13.97;6.50;;;16.00;39.40;;;;;;5014277;28;20257;-55
2023/05/28 05:02:53;;;;;;;9.10;6.32;;;16.00;39.40;;;;;;5014603;28;20532;-56
2023/05/28 05:05:20;;;;;;;9.48;6.30;;;16.10;39.40;;;;;;5014280;28;20194;-57
2023/05/28 05:07:46;;;;;;;6.82;6.13;;;16.20;39.70;;;;;;5014822;28;20548;-56
2023/05/28 05:10:12;;;;;;;9.27;5.55;;;16.40;39.50;;;;;;5013988;28;20569;-58
2023/05/28 05:12:38;;;;;;;10.90;6.33;;;16.40;40.10;;;;;;5014203;28;20198;-54
2023/05/28 05:15:08;;;;;;;13.15;5.95;;;16.60;39.80;;;;;;5014074;28;20652;-54
2023/05/28 05:17:34;;;;;;;10.23;6.63;;;16.70;39.00;;;;;;5013976;28;20213;-56
2023/05/28 05:20:01;;;;;;;9.80;6.38;;;16.80;38.50;;;;;;5013786;28;20179;-53
2023/05/28 05:22:27;;;;;;;10.13;5.80;;;16.90;38.10;;;;;;5014000;28;20693;-52
2023/05/28 05:24:53;;;;;;;9.13;6.30;;;16.90;37.70;;;;;;5014016;28;20171;-58
2023/05/28 05:27:18;;;;;;;11.10;5.57;;;17.00;37.60;;;;;;5013789;28;20856;-54
2023/05/28 05:29:44;;;;;;;9.17;5.93;;;17.00;37.30;;;;;;5013370;28;20178;-55
2023/05/28 05:32:10;;;;;;;8.13;5.87;;;17.10;37.40;;;;;;4996245;28;20217;-56
2023/05/28 05:34:36;;;;;;;8.83;5.60;;;17.10;37.20;;;;;;5014062;28;20175;-55
2023/05/28 05:37:03;;;;;;;8.10;5.40;;;17.10;36.90;;;;;;5013827;28;20854;-55
2023/05/28 05:39:29;;;;;;;10.77;6.25;;;17.20;37.20;;;;;;5013906;28;20872;-58
2023/05/28 05:41:55;;;;;;;10.07;5.73;;;17.20;37.10;;;;;;4996947;28;20166;-59
2023/05/28 05:44:20;;;;;;;11.30;5.70;;;17.20;37.00;;;;;;5014069;28;20496;-56
2023/05/28 05:46:47;;;;;;;7.47;4.87;;;17.30;36.80;;;;;;5013742;28;20194;-58
2023/05/28 05:49:13;;;;;;;10.88;5.68;;;17.30;36.70;;;;;;5013755;28;20418;-56
2023/05/28 05:51:39;;;;;;;8.38;6.25;;;17.40;36.80;;;;;;5013469;28;20652;-53
2023/05/28 05:54:05;;;;;;;10.37;5.73;;;17.50;37.00;;;;;;5013426;28;20181;-56
2023/05/28 05:56:31;;;;;;;11.75;6.90;;;17.60;36.70;;;;;;5013162;28;20668;-54
2023/05/28 05:58:58;;;;;;;7.85;5.28;;;17.70;36.20;;;;;;5013239;28;20171;-54
2023/05/28 06:01:24;;;;;;;9.45;6.00;;;17.80;36.40;;;;;;5013094;28;20244;-54
2023/05/28 06:03:50;;;;;;;9.77;7.15;;;18.00;36.50;;;;;;5013439;28;20171;-54
2023/05/28 06:06:16;;;;;;;11.13;6.05;;;18.10;36.10;;;;;;5012998;28;20202;-55
2023/05/28 06:08:42;;;;;;;7.77;5.60;;;18.10;36.20;;;;;;5013107;28;20233;-58
2023/05/28 06:11:09;;;;;;;13.15;5.88;;;18.30;36.20;;;;;;5013114;28;20185;-53
2023/05/28 06:13:36;;;;;;;6.68;5.10;;;18.40;36.30;;;;;;5012891;28;20182;-53
2023/05/28 06:16:06;;;;;;;7.35;6.18;;;18.50;36.30;;;;;;5012751;28;20297;-54
2023/05/28 06:18:32;;;;;;;8.43;5.93;;;18.70;35.90;;;;;;5013094;28;20197;-56
2023/05/28 06:20:58;;;;;;;10.38;6.00;;;18.80;35.90;;;;;;5012710;28;20173;-53
2023/05/28 06:23:25;;;;;;;12.75;5.47;;;18.90;36.00;;;;;;5012833;28;20187;-55
2023/05/28 06:25:51;;;;;;;6.90;5.57;;;19.10;35.60;;;;;;5012796;28;20194;-58
2023/05/28 06:28:16;;;;;;;7.53;5.60;;;19.10;35.60;;;;;;5012627;28;20653;-54
2023/05/28 06:30:42;;;;;;;13.30;5.83;;;19.30;36.00;;;;;;5012620;28;20277;-54
2023/05/28 06:33:09;;;;;;;9.63;6.65;;;19.30;34.70;;;;;;5012696;28;20181;-56
2023/05/28 06:35:35;;;;;;;6.03;4.85;;;19.40;35.20;;;;;;5012674;28;20274;-54
2023/05/28 06:38:01;;;;;;;7.43;5.45;;;19.50;35.40;;;;;;5012967;28;20221;-54
2023/05/28 06:40:27;;;;;;;10.67;6.27;;;19.70;35.30;;;;;;4994550;28;20175;-54
2023/05/28 06:42:53;;;;;;;8.67;6.77;;;19.80;34.30;;;;;;5012683;28;20244;-54
2023/05/28 06:45:18;;;;;;;8.33;5.83;;;19.80;34.20;;;;;;5012644;28;20406;-56
2023/05/28 06:47:45;;;;;;;8.50;5.87;;;19.90;34.20;;;;;;5012683;28;20409;-57
2023/05/28 06:50:11;;;;;;;9.00;6.05;;;20.00;34.70;;;;;;5012397;28;20175;-53
2023/05/28 06:52:37;;;;;;;8.03;4.97;;;20.10;34.50;;;;;;5012524;28;20198;-55
2023/05/28 06:55:05;;;;;;;7.63;5.53;;;20.20;34.20;;;;;;5012652;28;20189;-59
2023/05/28 06:57:32;;;;;;;11.13;6.25;;;20.30;34.20;;;;;;5012160;28;20497;-53
2023/05/28 06:59:58;;;;;;;13.27;6.60;;;20.50;34.30;;;;;;5012123;28;20175;-54
2023/05/28 07:02:25;;;;;;;10.33;6.30;;;20.60;33.80;;;;;;5012493;28;20176;-58
2023/05/28 07:04:51;;;;;;;11.43;7.85;;;20.80;33.80;;;;;;5012201;28;20664;-57
2023/05/28 07:07:17;;;;;;;10.70;7.20;;;20.90;34.00;;;;;;5012293;28;20201;-53
2023/05/28 07:09:43;;;;;;;11.93;5.83;;;20.90;33.60;;;;;;5012243;28;20424;-57
2023/05/28 07:12:09;;;;;;;9.97;6.07;;;21.10;33.80;;;;;;5012138;28;20414;-53
2023/05/28 07:14:35;;;;;;;9.93;6.35;;;21.20;33.50;;;;;;5012537;28;20202;-53
2023/05/28 07:17:01;;;;;;;6.72;5.22;;;21.30;33.10;;;;;;5012046;28;20198;-57
2023/05/28 07:19:27;;;;;;;11.40;6.40;;;21.40;32.40;;;;;;5012075;28;20573;-54
2023/05/28 07:21:53;;;;;;;7.27;5.63;;;21.50;32.70;;;;;;5012164;28;20181;-55
2023/05/28 07:24:18;;;;;;;8.47;5.20;;;21.50;32.10;;;;;;5012074;28;20229;-57
2023/05/28 07:26:44;;;;;;;7.10;5.30;;;21.60;32.30;;;;;;5011964;28;20237;-56
2023/05/28 07:29:13;;;;;;;10.53;5.93;;;21.70;32.70;;;;;;5012237;28;20229;-54
2023/05/28 07:31:38;;;;;;;8.75;5.25;;;21.80;32.00;;;;;;5012040;28;20463;-57
2023/05/28 07:34:05;;;;;;;11.27;6.73;;;22.00;31.70;;;;;;5012184;28;20257;-56
2023/05/28 07:36:31;;;;;;;7.47;5.47;;;22.10;31.90;;;;;;5011963;28;20236;-53
2023/05/28 07:38:57;;;;;;;8.13;5.50;;;22.10;31.10;;;;;;5012025;28;20406;-54
2023/05/28 07:41:23;;;;;;;10.27;5.50;;;22.20;32.10;;;;;;5011724;28;20405;-56
2023/05/28 07:43:48;;;;;;;9.37;5.53;;;22.40;31.80;;;;;;5012103;28;20179;-52
2023/05/28 07:46:16;;;;;;;6.63;5.30;;;22.50;31.30;;;;;;5012067;28;20202;-57
2023/05/28 07:48:43;;;;;;;7.05;4.78;;;22.60;31.10;;;;;;5012084;28;20179;-54
2023/05/28 07:51:10;;;;;;;8.40;5.93;;;22.70;30.60;;;;;;5011733;28;20183;-53
2023/05/28 07:53:36;;;;;;;7.43;4.23;;;22.80;30.60;;;;;;5015111;28;20917;-55
2023/05/28 07:56:01;;;;;;;9.97;5.63;;;22.90;30.20;;;;;;5015413;28;20858;-55
2023/05/28 07:58:27;;;;;;;6.33;4.33;;;23.00;30.50;;;;;;5015847;28;20471;-54
2023/05/28 08:00:53;;;;;;;7.70;5.53;;;23.20;30.30;;;;;;5015669;28;20177;-53
2023/05/28 08:03:19;;;;;;;8.07;5.13;;;23.20;29.60;;;;;;5015360;28;20712;-58
2023/05/28 08:05:44;;;;;;;6.33;4.93;;;23.30;29.10;;;;;;5015251;28;20214;-54
2023/05/28 08:08:10;;;;;;;8.07;4.43;;;23.40;29.70;;;;;;5015296;28;20185;-54
2023/05/28 08:10:36;;;;;;;6.43;4.50;;;23.60;30.20;;;;;;5015066;28;20374;-55
2023/05/28 08:13:01;;;;;;;9.07;4.40;;;23.70;30.20;;;;;;5015193;28;20854;-55
2023/05/28 08:15:28;;;;;;;6.70;4.23;;;23.80;28.70;;;;;;5015203;28;20233;-57
2023/05/28 08:17:54;;;;;;;8.50;3.90;;;23.80;25.30;;;;;;5015116;28;20707;-56
2023/05/28 08:20:22;;;;;;;7.23;3.87;;;23.90;27.60;;;;;;5014915;28;20433;-57
2023/05/28 08:22:48;;;;;;;3.00;2.43;;;24.00;26.60;;;;;;5014944;28;20175;-55
2023/05/28 08:25:14;;;;;;;10.67;3.87;;;24.10;24.50;;;;;;5014918;28;20414;-54
2023/05/28 08:27:40;;;;;;;5.40;4.07;;;24.20;27.10;;;;;;5014912;28;20472;-54
2023/05/28 08:30:06;;;;;;;7.90;4.50;;;24.40;27.40;;;;;;5014728;28;20179;-54
2023/05/28 08:32:32;;;;;;;6.63;3.80;;;24.70;27.40;;;;;;5014943;28;20410;-54
2023/05/28 08:34:57;;;;;;;5.87;4.23;;;24.80;26.20;;;;;;5014918;28;20398;-59
2023/05/28 08:37:23;;;;;;;10.60;4.03;;;25.00;26.30;;;;;;5014864;28;20280;-53
2023/05/28 08:39:49;;;;;;;8.63;3.80;;;25.10;26.40;;;;;;5014752;28;20177;-56
2023/05/28 08:42:15;;;;;;;6.33;2.80;;;25.20;26.30;;;;;;5014685;28;20171;-54
2023/05/28 08:44:41;;;;;;;5.20;3.17;;;25.40;25.90;;;;;;5015105;28;20406;-54
2023/05/28 08:47:08;;;;;;;14.10;9.37;;;25.60;25.70;;;;;;5014917;28;20672;-53
2023/05/28 08:49:51;;;;;;;5.93;3.10;;;25.70;25.60;;;;;;5014607;28;20401;-55
2023/05/28 08:52:19;;;;;;;3.93;2.80;;;25.80;24.20;;;;;;4997119;28;20410;-53
2023/05/28 08:54:46;;;;;;;6.40;3.13;;;25.80;24.30;;;;;;5014556;28;20797;-53
2023/05/28 08:57:13;;;;;;;6.93;3.77;;;25.90;24.00;;;;;;5014340;28;20488;-56
2023/05/28 08:59:39;;;;;;;3.70;2.67;;;26.00;24.00;;;;;;5014284;28;20437;-54
2023/05/28 09:02:06;;;;;;;4.97;3.77;;;26.10;24.30;;;;;;5014964;28;20448;-53
2023/05/28 09:04:31;;;;;;;8.13;3.50;;;26.20;24.50;;;;;;5014029;28;20491;-55
2023/05/28 09:06:57;;;;;;;8.00;4.70;;;26.30;24.00;;;;;;5014654;28;20919;-54
2023/05/28 09:09:24;;;;;;;7.40;6.20;;;26.30;22.30;;;;;;5014518;28;20170;-54
2023/05/28 09:11:50;;;;;;;4.87;3.10;;;26.30;22.70;;;;;;5014257;28;20863;-55
2023/05/28 09:14:18;;;;;;;3.87;3.10;;;26.40;21.00;;;;;;5007770;28;20407;-58
2023/05/28 09:16:45;;;;;;;5.90;3.10;;;26.50;20.90;;;;;;4994795;28;20533;-55
2023/05/28 09:19:15;;;;;;;6.40;2.63;;;26.40;20.60;;;;;;4990439;28;20489;-55
2023/05/28 09:21:53;;;;;;;12.10;8.87;;;26.50;21.70;;;;;;4986406;28;20826;-57
2023/05/28 09:24:18;;;;;;;4.90;2.90;;;26.50;22.10;;;;;;4984537;28;20415;-54
2023/05/28 09:26:44;;;;;;;6.87;5.13;;;26.60;22.20;;;;;;4991751;28;20434;-54
2023/05/28 09:29:13;;;;;;;7.50;2.97;;;26.70;21.80;;;;;;4994414;28;20563;-57
2023/05/28 09:31:39;;;;;;;4.97;3.57;;;26.80;21.90;;;;;;4994601;28;20175;-54
2023/05/28 09:34:05;;;;;;;5.47;3.20;;;26.80;21.50;;;;;;4978574;28;20766;-56
2023/05/28 09:36:31;;;;;;;3.93;3.20;;;26.90;21.80;;;;;;4974740;28;20227;-54
2023/05/28 09:38:57;;;;;;;9.37;3.50;;;26.90;21.10;;;;;;4975200;28;20408;-56
2023/05/28 09:41:24;;;;;;;5.07;2.63;;;27.00;21.80;;;;;;4974561;28;20408;-56
2023/05/28 09:44:10;;;;;;;6.63;3.80;;;27.00;21.90;;;;;;4975174;28;20214;-54
2023/05/28 09:46:36;;;;;;;4.73;3.20;;;27.10;20.50;;;;;;4974727;28;20883;-57
2023/05/28 09:49:03;;;;;;;8.10;3.23;;;27.00;19.60;;;;;;4975247;28;20419;-58
2023/05/28 09:51:31;;;;;;;3.70;2.80;;;27.10;21.50;;;;;;4977810;28;20256;-54
2023/05/28 09:54:00;;;;;;;4.30;2.60;;;27.20;21.40;;;;;;4994512;28;20481;-54
2023/05/28 09:56:33;;;;;;;4.37;3.20;;;27.20;20.60;;;;;;4991357;28;20820;-54
2023/05/28 09:59:01;;;;;;;8.20;5.20;;;27.30;19.90;;;;;;4991767;28;20415;-54
2023/05/28 10:02:02;;;;;;;35.63;6.00;;;27.20;21.20;;;;;;4992923;28;20968;-54
2023/05/28 10:04:34;;;;;;;6.07;3.50;;;27.30;22.00;;;;;;4979460;28;20441;-56
2023/05/28 10:07:00;;;;;;;6.73;3.00;;;27.30;21.00;;;;;;4992851;28;20433;-56
2023/05/28 10:09:27;;;;;;;4.63;2.83;;;27.30;21.10;;;;;;4992068;28;20916;-55
2023/05/28 10:12:05;;;;;;;6.40;3.60;;;27.40;20.70;;;;;;4992480;28;20414;-55
2023/05/28 10:14:31;;;;;;;3.73;3.13;;;27.50;21.00;;;;;;4999220;28;20414;-55
2023/05/28 10:16:58;;;;;;;59.60;44.77;;;27.60;20.90;;;;;;4992462;28;20453;-55
2023/05/28 10:19:25;;;;;;;6.10;2.50;;;27.70;20.90;;;;;;4993205;28;20946;-59
2023/05/28 10:21:51;;;;;;;5.33;3.13;;;27.80;20.20;;;;;;4993257;28;20429;-59
2023/05/28 10:24:17;;;;;;;6.53;4.77;;;27.90;19.70;;;;;;4990578;28;20506;-57
2023/05/28 10:26:43;;;;;;;7.00;5.10;;;27.90;20.70;;;;;;5004516;28;20433;-54
2023/05/28 10:29:09;;;;;;;8.40;3.00;;;28.00;20.10;;;;;;5012803;28;20415;-56
2023/05/28 10:31:35;;;;;;;5.60;3.77;;;28.00;20.90;;;;;;5012813;28;20417;-55
2023/05/28 10:34:01;;;;;;;12.93;11.63;;;28.00;18.80;;;;;;4995456;28;20312;-55
2023/05/28 10:36:27;;;;;;;9.20;5.50;;;28.00;20.10;;;;;;5012688;28;20893;-58
2023/05/28 10:38:53;;;;;;;4.57;3.80;;;28.10;20.00;;;;;;5012968;28;20184;-55
2023/05/28 10:41:22;;;;;;;8.50;3.80;;;28.10;21.20;;;;;;5012873;28;20405;-56
2023/05/28 10:43:49;;;;;;;6.80;3.20;;;28.20;20.70;;;;;;4978467;28;20187;-57
2023/05/28 10:46:19;;;;;;;3.63;3.17;;;28.20;18.90;;;;;;4973491;28;20428;-56
2023/05/28 10:49:11;;;;;;;5.07;3.07;;;28.30;18.60;;;;;;4973451;28;20434;-57
2023/05/28 10:52:00;;;;;;;7.80;4.90;;;28.20;19.30;;;;;;4980554;28;20418;-56
2023/05/28 10:54:45;;;;;;;3.90;2.97;;;28.20;19.40;;;;;;4976604;28;20495;-55
2023/05/28 10:57:15;;;;;;;3.63;2.33;;;28.30;19.40;;;;;;4971828;28;20466;-56
2023/05/28 10:59:51;;;;;;;5.90;2.87;;;28.30;19.40;;;;;;4971297;28;20499;-58
2023/05/28 11:02:23;;;;;;;5.87;2.90;;;28.30;19.60;;;;;;4972229;28;20510;-55
2023/05/28 11:05:00;;;;;;;7.50;3.50;;;28.40;19.30;;;;;;4972365;28;20429;-58
2023/05/28 11:07:31;;;;;;;4.63;3.17;;;28.50;18.60;;;;;;4972354;28;20477;-55
2023/05/28 11:09:58;;;;;;;4.30;3.40;;;28.50;19.10;;;;;;4972372;28;20490;-56
2023/05/28 11:12:28;;;;;;;3.73;2.70;;;28.50;19.10;;;;;;4972909;28;20450;-54
2023/05/28 11:14:55;;;;;;;4.80;3.30;;;28.70;18.80;;;;;;4973130;28;20422;-55
2023/05/28 11:17:20;;;;;;;4.83;3.20;;;28.70;19.30;;;;;;4973040;28;20463;-58
2023/05/28 11:19:48;;;;;;;5.97;4.60;;;28.70;19.10;;;;;;4972974;28;20490;-55
2023/05/28 11:22:17;;;;;;;4.07;3.43;;;28.80;19.20;;;;;;4973154;28;20168;-55
2023/05/28 11:25:18;;;;;;;4.77;3.20;;;28.90;17.60;;;;;;4973207;28;20462;-59
2023/05/28 11:27:46;;;;;;;5.40;3.27;;;28.80;17.90;;;;;;4971987;28;20426;-55
2023/05/28 11:30:17;;;;;;;3.87;3.33;;;28.50;16.90;;;;;;4976731;28;20415;-57
2023/05/28 11:32:44;;;;;;;11.10;3.57;;;28.40;18.00;;;;;;4998861;28;20468;-57
2023/05/28 11:35:14;;;;;;;4.23;2.80;;;28.40;18.60;;;;;;5016022;28;20417;-54
2023/05/28 11:37:41;;;;;;;3.40;2.80;;;28.40;17.50;;;;;;5016176;28;20457;-55
2023/05/28 11:40:12;;;;;;;3.20;2.80;;;28.40;17.40;;;;;;5012772;28;20418;-54
2023/05/28 11:42:39;;;;;;;5.23;3.43;;;28.40;16.60;;;;;;4976783;28;20407;-54
2023/05/28 11:45:06;;;;;;;5.90;3.27;;;28.40;18.20;;;;;;4976880;28;20414;-53
2023/05/28 11:47:34;;;;;;;4.47;3.70;;;28.50;18.00;;;;;;4976716;28;20975;-54
2023/05/28 11:50:13;;;;;;;7.77;3.37;;;28.60;17.40;;;;;;4976384;28;20770;-58
2023/05/28 11:52:38;;;;;;;3.70;2.97;;;28.60;16.60;;;;;;4976588;28;20395;-55
2023/05/28 11:55:05;;;;;;;4.67;3.00;;;28.50;18.20;;;;;;4976466;28;20417;-55
2023/05/28 11:57:38;;;;;;;6.10;3.27;;;28.60;17.70;;;;;;4975739;28;20233;-56
2023/05/28 12:00:10;;;;;;;7.23;3.20;;;28.60;17.90;;;;;;4976618;28;20402;-54
2023/05/28 12:02:51;;;;;;;5.80;3.43;;;28.70;19.20;;;;;;4976572;28;20403;-55
2023/05/28 12:05:18;;;;;;;7.33;3.47;;;28.90;17.20;;;;;;4976120;28;20442;-53
2023/05/28 12:07:48;;;;;;;6.27;3.23;;;29.00;18.20;;;;;;4976466;28;20415;-53
2023/05/28 12:10:19;;;;;;;6.73;3.30;;;29.00;18.60;;;;;;4975967;28;20423;-60
2023/05/28 12:12:55;;;;;;;5.30;3.13;;;29.10;19.20;;;;;;4976463;28;20473;-55
2023/05/28 12:15:23;;;;;;;13.47;11.80;;;29.20;18.90;;;;;;4976071;28;20413;-55
2023/05/28 12:17:53;;;;;;;6.90;4.27;;;29.30;18.90;;;;;;4976075;28;20456;-57
2023/05/28 12:20:19;;;;;;;5.73;3.50;;;29.30;17.80;;;;;;4975838;28;20394;-54
2023/05/28 12:22:45;;;;;;;5.40;4.53;;;29.20;17.10;;;;;;4976076;28;20411;-55
2023/05/28 12:25:11;;;;;;;4.03;3.07;;;29.10;16.70;;;;;;4975880;28;20267;-57
2023/05/28 12:27:37;;;;;;;5.00;3.07;;;29.10;17.40;;;;;;4976139;28;20271;-55
2023/05/28 12:30:04;;;;;;;4.37;3.37;;;29.00;17.70;;;;;;4975640;28;20989;-59
2023/05/28 12:32:30;;;;;;;6.37;3.13;;;29.00;17.10;;;;;;4976252;28;20421;-56
2023/05/28 12:34:56;;;;;;;3.40;3.10;;;29.00;17.30;;;;;;4975944;28;20415;-54
2023/05/28 12:37:23;;;;;;;4.10;3.40;;;29.00;19.00;;;;;;4975572;28;20215;-56
2023/05/28 12:39:49;;;;;;;5.30;3.60;;;29.10;18.80;;;;;;4974761;28;20431;-54
2023/05/28 12:42:16;;;;;;;4.07;2.60;;;29.20;18.90;;;;;;4975694;28;20411;-53
2023/05/28 12:44:42;;;;;;;6.37;3.20;;;29.40;17.70;;;;;;4958531;28;20427;-54